Tiempo atmosférico en la estación meteorológica de Pedrosillo de Los Aires, Salamanca (865 m.)



Fecha
DESCASC
Temp. máxima en grados centígrados (hora)
DESCASC
Temp. mínima en grados centígrados (hora)
DESCASC
Temp. media en grados centígrados
DESCASC
Racha de viento máxima en m/sg (hora)
DESCASC
Velocidad máxima media en intervalos de 10 minutos(hora)
DESCASC
Precipitaciones diarias en mm
DESCASC
Precipitaciones de 00:00 a 06:00 en mm
DESCASC
Precipitaciones de 06:00 a 12:00 en mm
DESCASC
Precipitaciones de 12:00 a 18:00 en mm
DESCASC
Precipitaciones de 18:00 a 24:00 en mm
DESCASC
11-08-2020 26.9 (16:30) 13.7 (22:50) 20.3 18.89 (20:50) 8.61 (20:50) 7.6 0 0 0 7.6
10-08-2020 32.9 (17:00) 11.2 (08:00) 22.1 16.67 (15:10) 7.22 (15:10) 0 0 0 0 0
09-08-2020 33.6 (16:10) 14.6 (07:50) 24.1 11.67 (19:10) 7.22 (14:10) 0 0 0 0 0
08-08-2020 34.3 (18:10) 15 (07:40) 24.6 21.11 (17:20) 10.83 (17:10) 0 0 0 0 0
07-08-2020 34.8 (16:00) 15.1 (00:00) 24.9 11.67 (14:20) 6.67 (18:00) 0 0 0 0 0
06-08-2020 36.8 (16:30) 14 (07:00) 25.4 11.39 (17:20) 6.94 (18:30) 0 0 0 0 0
05-08-2020 34.3 (18:00) 10.1 (00:00) 22.2 7.5 (14:50) 5 (16:30) 0 0 0 0 0
04-08-2020 30.7 (18:20) 12.6 (07:00) 21.7 7.5 (15:10) 5.28 (19:30) 0 0 0 0 0
03-08-2020 28.8 (18:20) 14.2 (07:30) 21.5 8.89 (12:40) 5.56 (13:00) 0 0 0 0 0
02-08-2020 30.6 (17:20) 11.8 (07:30) 21.2 7.78 (12:50) 5 (13:10) 0 0 0 0 0
01-08-2020 33 (17:00) 11.5 (00:00) 22.3 11.39 (16:30) 6.39 (19:40) 0 0 0 0 0
31-07-2020 35 (17:40) 13 (07:30) 24 11.67 (10:50) 7.5 (10:50) 0 0 0 0 0
30-07-2020 35.1 (15:50) 15.1 (00:00) 25.1 13.06 (16:20) 7.78 (16:20) 0 0 0 0 0
29-07-2020 37.1 (18:10) 16 (00:00) 26.5 8.61 (15:10) 5 (00:30) 0 0 0 0 0
28-07-2020 35.4 (18:20) 15.6 (07:00) 25.5 7.5 (15:50) 4.17 (15:50) 0 0 0 0 0
27-07-2020 35.9 (16:30) 14.2 (00:00) 25.1 10.56 (15:10) 6.39 (13:30) 0 0 0 0 0
26-07-2020 36.3 (17:40) 11.4 (00:00) 23.8 8.89 (18:00) 5.28 (19:00) 0 0 0 0 0
25-07-2020 34.7 (17:40) 11.4 (07:10) 23.1 8.61 (18:40) 5 (18:40) 0 0 0 0 0
24-07-2020 33 (18:10) 13.6 (00:00) 23.3 7.5 (18:40) 5.56 (12:10) 0 0 0 0 0
23-07-2020 34.5 (17:10) 15.1 (00:00) 24.8 8.06 (19:10) 4.72 (19:10) 0 0 0 0 0
22-07-2020 32.2 (18:20) 13.1 (07:30) 22.7 7.22 (17:20) 4.17 (03:00) 0.2 0.2 0 0 0
21-07-2020 31.8 (14:10) 11.7 (00:00) 21.7 12.78 (20:00) 6.94 (15:10) 0 0 0 0 0
20-07-2020 35 (18:20) 11.5 (07:20) 23.3 11.11 (13:00) 6.39 (13:10) 0 0 0 0 0
19-07-2020 33.6 (16:50) 12.6 (00:00) 23.1 12.78 (14:10) 7.78 (12:10) 0 0 0 0 0
18-07-2020 33.6 (17:30) 9.1 (00:00) 21.3 7.22 (18:10) 4.44 (14:10) 0 0 0 0 0
17-07-2020 32 (17:40) 13.2 (00:00) 22.6 8.33 (17:10) 6.11 (03:30) 0 0 0 0 0
16-07-2020 32.6 (16:40) 12.9 (00:00) 22.7 8.61 (15:50) 5.28 (15:50) 0 0 0 0 0
15-07-2020 30.3 (16:50) 11.2 (07:20) 20.7 12.22 (14:10) 7.5 (13:30) 0 0 0 0 0

Gráficas

Temp. máximas Temp. mínimas Temp. medias Precipitaciones Rachas de viento máximas Velocidades máximas media en intervalos de 10 minutos

Datos horarios

Fecha y hora oficial Temperatura (ºC) Velocidad del viento (km/h) Dirección del viento Racha (km/h) Dirección de racha Precipitación (mm) Presión (hPa) Tendencia (hPa) Humedad (%)
2020-08-13 23:00:00 19.1 6 Noroeste 9 Oeste 0 -- -- 42
2020-08-13 22:00:00 22.2 6 Oeste 13 Oeste 0 -- -- 36
2020-08-13 21:00:00 25.1 9 Oeste 15 Oeste 0 -- -- 32
2020-08-13 20:00:00 27.9 10 Oeste 23 Oeste 0 -- -- 30
2020-08-13 19:00:00 29 12 Oeste 22 Sudoeste 0 -- -- 26
2020-08-13 18:00:00 29.2 12 Sudoeste 31 Sudoeste 0 -- -- 26
2020-08-13 17:00:00 28.9 15 Sudoeste 26 Sudoeste 0 -- -- 27
2020-08-13 16:00:00 28.4 9 Oeste 27 Sudoeste 0 -- -- 26
2020-08-13 15:00:00 27.3 8 Norte 22 Noroeste 0 -- -- 28
2020-08-13 14:00:00 25.5 8 Sur 15 Oeste 0 -- -- 36
2020-08-13 13:00:00 23.5 6 Noroeste 14 Oeste 0 -- -- 44
2020-08-13 12:00:00 21.4 4 Oeste 11 Oeste 0 -- -- 51
2020-08-13 11:00:00 19.2 4 Nordeste 9 Norte 0 -- -- 62
2020-08-13 10:00:00 16.9 2 Nordeste 6 Este 0 -- -- 70
2020-08-13 09:00:00 12.5 2 Sudoeste 8 Noroeste 0 -- -- 90
2020-08-13 08:00:00 10.3 3 Oeste 9 Oeste 0 -- -- 93
2020-08-13 07:00:00 10.6 4 Noroeste 9 Sudoeste 0 -- -- 93
2020-08-13 06:00:00 11.5 6 Oeste 11 Oeste 0 -- -- 91
2020-08-13 05:00:00 12.4 7 Sudoeste 12 Oeste 0 -- -- 90
2020-08-13 04:00:00 13.1 8 Sudoeste 10 Oeste 0 -- -- 88
2020-08-13 03:00:00 14.1 6 Sudoeste 8 Sudoeste 0 -- -- 85
2020-08-13 02:00:00 15 2 Sur 10 Oeste 0 -- -- 84
2020-08-13 01:00:00 15.7 7 Oeste 10 Oeste 0 -- -- 79
2020-08-13 00:00:00 17 5 Oeste 10 Oeste 0 -- -- 71
2020-08-12 23:00:00 17.8 5 Oeste 10 Oeste 0 -- -- 66
2020-08-12 22:00:00 19.2 6 Oeste 21 Oeste 0 -- -- 60
2020-08-12 21:00:00 21.5 13 Oeste 30 Oeste 0 -- -- 51
2020-08-12 20:00:00 20.9 15 Oeste 31 Oeste 0 -- -- 51
2020-08-12 19:00:00 20.4 21 Oeste 37 Oeste 0 -- -- 57
2020-08-12 18:00:00 23.1 25 Oeste 42 Oeste 0 -- -- 52
2020-08-12 17:00:00 26.4 22 Sudoeste 39 Sudoeste 0 -- -- 38
2020-08-12 16:00:00 25.2 19 Sudoeste 34 Sudoeste 0 -- -- 41
2020-08-12 15:00:00 25.4 21 Oeste 41 Oeste 0 -- -- 44
2020-08-12 14:00:00 25.1 19 Oeste 35 Sudoeste 0 -- -- 47
2020-08-12 13:00:00 24.2 14 Sudoeste 30 Sur 0 -- -- 48
2020-08-12 12:00:00 22.9 17 Sudoeste 27 Sudoeste 0 -- -- 55
2020-08-12 11:00:00 20.4 14 Sudoeste 24 Sudoeste 0 -- -- 66
2020-08-12 10:00:00 16.8 5 Oeste 9 Oeste 0 -- -- 81
2020-08-12 09:00:00 14.7 4 Oeste 11 Oeste 0 -- -- 83
2020-08-12 08:00:00 12.2 8 Oeste 13 Sudoeste 0 -- -- 93
2020-08-12 07:00:00 12.3 9 Oeste 11 Sudoeste 0 -- -- 93
2020-08-12 06:00:00 13 6 Sudoeste 9 Oeste 0 -- -- 92
2020-08-12 05:00:00 13.1 8 Oeste 14 Norte 0 -- -- 90
2020-08-12 04:00:00 13.6 5 Oeste 16 Oeste 0 -- -- 85
2020-08-12 03:00:00 13.7 8 Oeste 14 Oeste 0 -- -- 87
2020-08-12 02:00:00 14.3 5 Sudoeste 14 Noroeste 0 -- -- 85
2020-08-12 01:00:00 13.9 8 Oeste 12 Sudoeste 0 -- -- 91
2020-08-12 00:00:00 14 6 Sudoeste 8 Oeste 0 -- -- 91
2020-08-11 23:00:00 13.7 6 Oeste 10 Oeste 0 -- -- 92
2020-08-11 22:00:00 15 4 Noroeste 15 Noroeste 0 -- -- 82
2020-08-11 21:00:00 16.3 19 Noroeste 68 Sudoeste 7.6 -- -- 69
2020-08-11 20:00:00 24.8 11 Nordeste 19 Nordeste 0 -- -- 46
2020-08-11 19:00:00 24.5 11 Nordeste 27 Nordeste 0 -- -- 46
2020-08-11 18:00:00 25.1 20 Nordeste 28 Nordeste 0 -- -- 42
2020-08-11 17:00:00 24.3 21 Nordeste 36 Nordeste 0 -- -- 40
2020-08-11 16:00:00 26.2 24 Este 41 Este 0 -- -- 36
2020-08-11 15:00:00 24.3 16 Este 28 Sudeste 0 -- -- 42
2020-08-11 14:00:00 23.3 18 Sudeste 33 Sur 0 -- -- 41
2020-08-11 13:00:00 23.8 17 Sudeste 31 Sudeste 0 -- -- 49
2020-08-11 12:00:00 24.7 8 Sur 13 Noroeste 0 -- -- 44
2020-08-11 11:00:00 24.1 2 Sur 6 Sudeste 0 -- -- 43
2020-08-11 10:00:00 20.2 4 Oeste 5 Oeste 0 -- -- 52
2020-08-11 09:00:00 16.7 5 Oeste 9 Oeste 0 -- -- 60
2020-08-11 08:00:00 14.3 3 Oeste 9 Oeste 0 -- -- 67
2020-08-11 07:00:00 15 6 Oeste 11 Oeste 0 -- -- 64
2020-08-11 06:00:00 16.5 5 Oeste 8 Oeste 0 -- -- 58
2020-08-11 05:00:00 16.3 3 Noroeste 11 Sudoeste 0 -- -- 60
2020-08-11 04:00:00 17 5 Sudoeste 17 Oeste 0 -- -- 55
2020-08-11 03:00:00 16.3 9 Oeste 14 Oeste 0 -- -- 58
2020-08-11 02:00:00 17 4 Norte 9 Nordeste 0 -- -- 54
2020-08-11 01:00:00 17.8 4 Noroeste 11 Oeste 0 -- -- 53
2020-08-11 00:00:00 19.8 5 Oeste 8 Oeste 0 -- -- 49
2020-08-10 23:00:00 22.8 5 Sudoeste 9 Oeste 0 -- -- 39
2020-08-10 22:00:00 25.2 8 Sudoeste 18 Sudoeste 0 -- -- 35
2020-08-10 21:00:00 28.9 14 Sudoeste 31 Sudoeste 0 -- -- 29
2020-08-10 20:00:00 31.1 18 Sudoeste 36 Sudoeste 0 -- -- 27
2020-08-10 19:00:00 31.6 24 Sudoeste 39 Sudoeste 0 -- -- 25
2020-08-10 18:00:00 32.4 23 Sudoeste 38 Sudoeste 0 -- -- 22
2020-08-10 17:00:00 32.9 21 Sudoeste 41 Sudoeste 0 -- -- 24
2020-08-10 16:00:00 32.7 23 Sudoeste 60 Sudoeste 0 -- -- 26
2020-08-10 15:00:00 32.3 19 Sudoeste 44 Sudoeste 0 -- -- 27
2020-08-10 14:00:00 31.5 19 Sudoeste 40 Sudoeste 0 -- -- 28
2020-08-10 13:00:00 30.6 21 Sudoeste 37 Sudoeste 0 -- -- 28
2020-08-10 12:00:00 29 23 Sudoeste 36 Sudoeste 0 -- -- 29
2020-08-10 11:00:00 27 16 Sudoeste 24 Sudoeste 0 -- -- 31
2020-08-10 10:00:00 21.1 4 Oeste 8 Oeste 0 -- -- 46
2020-08-10 09:00:00 15 3 Oeste 10 Oeste 0 -- -- 68
2020-08-10 08:00:00 11.2 8 Oeste 9 Oeste 0 -- -- 77
2020-08-10 07:00:00 12.2 6 Sudoeste 9 Sudoeste 0 -- -- 75
2020-08-10 06:00:00 13 5 Noroeste 8 Oeste 0 -- -- 74
2020-08-10 05:00:00 14.1 7 Oeste 9 Oeste 0 -- -- 65
2020-08-10 04:00:00 15.7 5 Oeste 9 Noroeste 0 -- -- 59
2020-08-10 03:00:00 16.7 9 Oeste 10 Oeste 0 -- -- 56
2020-08-10 02:00:00 18.2 5 Sudoeste 11 Oeste 0 -- -- 51
2020-08-10 01:00:00 19.5 6 Sudoeste 9 Sudoeste 0 -- -- 47
2020-08-10 00:00:00 20.9 0 Calma 12 Sudoeste 0 -- -- 47
2020-08-09 23:00:00 22.4 9 Sudoeste 12 Oeste 0 -- -- 41
2020-08-09 22:00:00 25.8 6 Sudoeste 21 Sudoeste 0 -- -- 35
2020-08-09 21:00:00 29.3 13 Sudoeste 29 Sudoeste 0 -- -- 28
2020-08-09 20:00:00 31.7 19 Sudoeste 42 Sudoeste 0 -- -- 23
2020-08-09 19:00:00 32.3 23 Sudoeste 40 Sudoeste 0 -- -- 24
2020-08-09 18:00:00 33.3 23 Sudoeste 39 Sudoeste 0 -- -- 22
2020-08-09 17:00:00 33.2 22 Sudoeste 39 Sudoeste 0 -- -- 23
2020-08-09 16:00:00 33.4 20 Sudoeste 41 Sudoeste 0 -- -- 27
2020-08-09 15:00:00 33 24 Sudoeste 42 Sudoeste 0 -- -- 27
2020-08-09 14:00:00 31.9 22 Sudoeste 38 Sudoeste 0 -- -- 32
2020-08-09 13:00:00 30 22 Sudoeste 41 Sudoeste 0 -- -- 35
2020-08-09 12:00:00 29.8 22 Sudoeste 40 Sudoeste 0 -- -- 35
2020-08-09 11:00:00 28.7 22 Sudoeste 33 Sudoeste 0 -- -- 36
2020-08-09 10:00:00 24.7 3 Sudoeste 8 Oeste 0 -- -- 48
2020-08-09 09:00:00 19.1 6 Oeste 8 Oeste 0 -- -- 63
2020-08-09 08:00:00 15 3 Sudoeste 8 Oeste 0 -- -- 78
2020-08-09 07:00:00 14.9 7 Oeste 9 Oeste 0 -- -- 79
2020-08-09 06:00:00 15.7 5 Oeste 10 Oeste 0 -- -- 74
2020-08-09 05:00:00 16.1 8 Oeste 9 Oeste 0 -- -- 72
2020-08-09 04:00:00 17.9 0 Calma 10 Sudoeste 0 -- -- 64
2020-08-09 03:00:00 18.3 7 Sudoeste 12 Oeste 0 -- -- 63
2020-08-09 02:00:00 19 6 Sudoeste 16 Noroeste 0 -- -- 61
2020-08-09 01:00:00 20.3 5 Oeste 7 Oeste 0 -- -- 57
2020-08-09 00:00:00 23.1 4 Este 9 Sudoeste 0 -- -- 49
2020-08-08 23:00:00 24.4 6 Sudoeste 12 Sudoeste 0 -- -- 45
2020-08-08 22:00:00 26.7 8 Sudoeste 18 Sudoeste 0 -- -- 41
2020-08-08 21:00:00 30.1 12 Sudoeste 28 Sudoeste 0 -- -- 36
2020-08-08 20:00:00 32.8 16 Sudoeste 25 Sudoeste 0 -- -- 29
2020-08-08 19:00:00 34 14 Sudoeste 27 Sur 0 -- -- 23
2020-08-08 18:00:00 33.9 7 Sudoeste 76 Sudoeste 0 -- -- 22
2020-08-08 17:00:00 31.2 32 Sudoeste 51 Sudoeste 0 -- -- 28
2020-08-08 16:00:00 32.7 26 Sudoeste 43 Sudoeste 0 -- -- 30
2020-08-08 15:00:00 32.9 17 Oeste 32 Sudoeste 0 -- -- 31
2020-08-08 14:00:00 32.3 18 Sudoeste 29 Oeste 0 -- -- 34
2020-08-08 13:00:00 32.3 18 Sudoeste 34 Oeste 0 -- -- 33
2020-08-08 12:00:00 30.7 18 Sudoeste 35 Sudoeste 0 -- -- 34
2020-08-08 11:00:00 29.1 18 Sudoeste 32 Sur 0 -- -- 35
2020-08-08 10:00:00 22.4 4 Sudoeste 8 Sur 0 -- -- 53
2020-08-08 09:00:00 17.8 4 Noroeste 7 Oeste 0 -- -- 66
2020-08-08 08:00:00 15.2 4 Oeste 8 Oeste 0 -- -- 74
2020-08-08 07:00:00 15.4 7 Oeste 10 Oeste 0 -- -- 73
2020-08-08 06:00:00 15.2 8 Oeste 9 Oeste 0 -- -- 74
2020-08-08 05:00:00 16.1 3 Noroeste 8 Oeste 0 -- -- 69
2020-08-08 04:00:00 17.1 5 Oeste 10 Sudoeste 0 -- -- 65
2020-08-08 03:00:00 17.5 9 Oeste 12 Oeste 0 -- -- 64
2020-08-08 02:00:00 19.1 8 Oeste 10 Sudoeste 0 -- -- 58
2020-08-08 01:00:00 20.1 5 Oeste 12 Oeste 0 -- -- 56
2020-08-08 00:00:00 22 3 Sudoeste 12 Oeste 0 -- -- 50
2020-08-07 23:00:00 24.3 6 Sudoeste 8 Oeste 0 -- -- 44
2020-08-07 22:00:00 28 0 Calma 15 Sudoeste 0 -- -- 38
2020-08-07 21:00:00 30.9 10 Oeste 28 Sudoeste 0 -- -- 33
2020-08-07 20:00:00 33 15 Sudoeste 30 Sudoeste 0 -- -- 30
2020-08-07 19:00:00 33.9 21 Sudoeste 36 Oeste 0 -- -- 27
2020-08-07 18:00:00 34.3 24 Sudoeste 36 Sudoeste 0 -- -- 27
2020-08-07 17:00:00 34.4 22 Sudoeste 39 Sudoeste 0 -- -- 28
2020-08-07 16:00:00 34.8 18 Sudoeste 34 Sudoeste 0 -- -- 29
2020-08-07 15:00:00 34.1 17 Sudoeste 42 Sudoeste 0 -- -- 29
2020-08-07 14:00:00 33 19 Sudoeste 39 Sudoeste 0 -- -- 31
2020-08-07 13:00:00 32 17 Sudoeste 35 Sudoeste 0 -- -- 32
2020-08-07 12:00:00 30.7 22 Sudoeste 41 Sudoeste 0 -- -- 34
2020-08-07 11:00:00 29.6 19 Sudoeste 35 Sudoeste 0 -- -- 37
2020-08-07 10:00:00 24.9 0 Calma 8 Oeste 0 -- -- 47
2020-08-07 09:00:00 18.6 3 Noroeste 11 Oeste 0 -- -- 63
2020-08-07 08:00:00 15.2 6 Noroeste 9 Oeste 0 -- -- 73
2020-08-07 07:00:00 15.2 3 Oeste 12 Sudoeste 0 -- -- 70
2020-08-07 06:00:00 16.7 7 Oeste 11 Oeste 0 -- -- 64
2020-08-07 05:00:00 16.6 10 Oeste 12 Oeste 0 -- -- 62
2020-08-07 04:00:00 17.2 5 Sudoeste 13 Oeste 0 -- -- 56
2020-08-07 03:00:00 18.3 7 Oeste 16 Oeste 0 -- -- 51
2020-08-07 02:00:00 19.3 2 Noroeste 10 Noroeste 0 -- -- 49
2020-08-07 01:00:00 20.8 4 Noroeste 10 Oeste 0 -- -- 45
2020-08-07 00:00:00 22.5 4 Oeste 11 Oeste 0 -- -- 41
2020-08-06 23:00:00 26.2 5 Oeste 9 Oeste 0 -- -- 34
2020-08-06 22:00:00 28.5 6 Sudoeste 19 Sudoeste 0 -- -- 30
2020-08-06 21:00:00 32.3 14 Sudoeste 30 Sudoeste 0 -- -- 25
2020-08-06 20:00:00 34.2 18 Sudoeste 39 Sudoeste 0 -- -- 26
2020-08-06 19:00:00 35.2 21 Sudoeste 37 Sudoeste 0 -- -- 23
2020-08-06 18:00:00 35.5 21 Sudoeste 41 Sudoeste 0 -- -- 24
2020-08-06 17:00:00 36.1 21 Sudoeste 38 Sudoeste 0 -- -- 21
2020-08-06 16:00:00 36.1 14 Sudoeste 34 Sudeste 0 -- -- 23
2020-08-06 15:00:00 35.6 15 Sudoeste 35 Sudoeste 0 -- -- 23
2020-08-06 14:00:00 35.4 14 Sur 31 Sur 0 -- -- 26
2020-08-06 13:00:00 34.1 14 Sur 23 Sudoeste 0 -- -- 25
2020-08-06 12:00:00 33.7 10 Oeste 28 Sur 0 -- -- 26
2020-08-06 11:00:00 31.2 9 Sudoeste 19 Sudoeste 0 -- -- 28
2020-08-06 10:00:00 24.8 4 Oeste 6 Oeste 0 -- -- 38
2020-08-06 09:00:00 18.6 0 Calma 5 Noroeste 0 -- -- 54
2020-08-06 08:00:00 14.5 4 Oeste 6 Oeste 0 -- -- 62
2020-08-06 07:00:00 14 3 Oeste 9 Norte 0 -- -- 62
2020-08-06 06:00:00 14.4 5 Oeste 9 Oeste 0 -- -- 60
2020-08-06 05:00:00 14.7 3 Oeste 10 Sudoeste 0 -- -- 57
2020-08-06 04:00:00 15.5 3 Noroeste 9 Oeste 0 -- -- 55
2020-08-06 03:00:00 16 0 Calma 12 Sudoeste 0 -- -- 55
2020-08-06 02:00:00 17.4 3 Noroeste 9 Oeste 0 -- -- 48
2020-08-06 01:00:00 18.3 6 Noroeste 9 Oeste 0 -- -- 48
2020-08-06 00:00:00 20.5 4 Noroeste 14 Oeste 0 -- -- 43
2020-08-05 23:00:00 22.4 8 Noroeste 11 Oeste 0 -- -- 39
2020-08-05 22:00:00 26.2 5 Nordeste 16 Nordeste 0 -- -- 32
2020-08-05 21:00:00 29.7 14 Nordeste 22 Nordeste 0 -- -- 26
2020-08-05 20:00:00 31.7 16 Nordeste 24 Nordeste 0 -- -- 25
2020-08-05 19:00:00 33.2 13 Nordeste 27 Nordeste 0 -- -- 24
2020-08-05 18:00:00 34.3 11 Nordeste 27 Nordeste 0 -- -- 21
2020-08-05 17:00:00 33.8 14 Nordeste 25 Nordeste 0 -- -- 22
2020-08-05 16:00:00 33.8 14 Nordeste 25 Nordeste 0 -- -- 21
2020-08-05 15:00:00 33 16 Nordeste 27 Nordeste 0 -- -- 22
2020-08-05 14:00:00 32.1 12 Nordeste 24 Este 0 -- -- 24
2020-08-05 13:00:00 30.8 12 Nordeste 20 Nordeste 0 -- -- 25
2020-08-05 12:00:00 28.7 14 Nordeste 19 Nordeste 0 -- -- 28
2020-08-05 11:00:00 25.7 6 Este 9 Este 0 -- -- 36
2020-08-05 10:00:00 20.8 5 Este 6 Este 0 -- -- 46
2020-08-05 09:00:00 14.4 3 Oeste 5 Noroeste 0 -- -- 62
2020-08-05 08:00:00 10.4 6 Oeste 8 Oeste 0 -- -- 74
2020-08-05 07:00:00 10.8 5 Oeste 7 Oeste 0 -- -- 73
2020-08-05 06:00:00 11.1 6 Oeste 11 Oeste 0 -- -- 70
2020-08-05 05:00:00 12.1 4 Oeste 9 Sudoeste 0 -- -- 64
2020-08-05 04:00:00 12.7 5 Noroeste 7 Noroeste 0 -- -- 68
2020-08-05 03:00:00 13.4 5 Noroeste 8 Oeste 0 -- -- 62
2020-08-05 02:00:00 14.7 5 Oeste 13 Oeste 0 -- -- 59
2020-08-05 01:00:00 16.6 5 Noroeste 8 Oeste 0 -- -- 59
2020-08-05 00:00:00 19.2 0 Calma 6 Oeste 0 -- -- 44
2020-08-04 23:00:00 21 5 Nordeste 13 Nordeste 0 -- -- 41
2020-08-04 22:00:00 23.2 10 Nordeste 22 Nordeste 0 -- -- 38
2020-08-04 21:00:00 26.7 17 Nordeste 26 Nordeste 0 -- -- 31
2020-08-04 20:00:00 28.6 19 Nordeste 26 Nordeste 0 -- -- 31
2020-08-04 19:00:00 30 18 Nordeste 24 Nordeste 0 -- -- 28
2020-08-04 18:00:00 30.5 14 Nordeste 24 Nordeste 0 -- -- 28
2020-08-04 17:00:00 30.3 18 Nordeste 27 Nordeste 0 -- -- 29
2020-08-04 16:00:00 30.3 14 Nordeste 27 Nordeste 0 -- -- 28
2020-08-04 15:00:00 29.8 12 Nordeste 22 Este 0 -- -- 29
2020-08-04 14:00:00 28.6 13 Nordeste 27 Nordeste 0 -- -- 31
2020-08-04 13:00:00 27.4 17 Nordeste 25 Nordeste 0 -- -- 35
2020-08-04 12:00:00 24.7 18 Nordeste 27 Norte 0 -- -- 42
2020-08-04 11:00:00 22.3 15 Nordeste 21 Nordeste 0 -- -- 49
2020-08-04 10:00:00 18.7 7 Nordeste 19 Nordeste 0 -- -- 58
2020-08-04 09:00:00 16 10 Nordeste 13 Nordeste 0 -- -- 68
2020-08-04 08:00:00 13 0 Calma 10 Nordeste 0 -- -- 76
2020-08-04 07:00:00 12.6 5 Nordeste 14 Nordeste 0 -- -- 79
2020-08-04 06:00:00 13.5 8 Nordeste 15 Nordeste 0 -- -- 75
2020-08-04 05:00:00 13.8 9 Nordeste 14 Nordeste 0 -- -- 72
2020-08-04 04:00:00 13.7 2 Nordeste 12 Oeste 0 -- -- 65
2020-08-04 03:00:00 14 7 Oeste 11 Oeste 0 -- -- 62
2020-08-04 02:00:00 14.9 8 Oeste 14 Oeste 0 -- -- 63
2020-08-04 01:00:00 16.4 9 Oeste 12 Oeste 0 -- -- 56
2020-08-04 00:00:00 17.7 9 Oeste 12 Oeste 0 -- -- 54
2020-08-03 23:00:00 20.4 5 Nordeste 11 Nordeste 0 -- -- 48
2020-08-03 22:00:00 22.4 10 Nordeste 18 Nordeste 0 -- -- 42
2020-08-03 21:00:00 26 13 Nordeste 19 Nordeste 0 -- -- 35
2020-08-03 20:00:00 27.8 12 Nordeste 22 Nordeste 0 -- -- 32
2020-08-03 19:00:00 28.6 10 Este 22 Nordeste 0 -- -- 29
2020-08-03 18:00:00 28.6 13 Nordeste 24 Este 0 -- -- 29
2020-08-03 17:00:00 28.3 15 Nordeste 29 Este 0 -- -- 31
2020-08-03 16:00:00 27.8 15 Nordeste 26 Este 0 -- -- 30
2020-08-03 15:00:00 27.1 12 Nordeste 24 Nordeste 0 -- -- 29
2020-08-03 14:00:00 26.2 15 Nordeste 29 Nordeste 0 -- -- 31
2020-08-03 13:00:00 24.4 20 Nordeste 32 Nordeste 0 -- -- 39
2020-08-03 12:00:00 23.2 17 Nordeste 26 Nordeste 0 -- -- 45
2020-08-03 11:00:00 20.5 15 Nordeste 25 Nordeste 0 -- -- 52
2020-08-03 10:00:00 18.3 12 Nordeste 21 Nordeste 0 -- -- 61
2020-08-03 09:00:00 15.2 12 Nordeste 21 Nordeste 0 -- -- 70
2020-08-03 08:00:00 14.4 8 Este 17 Este 0 -- -- 74
2020-08-03 07:00:00 14.7 12 Nordeste 20 Nordeste 0 -- -- 72
2020-08-03 06:00:00 15.5 14 Nordeste 26 Nordeste 0 -- -- 70
2020-08-03 05:00:00 16.5 18 Nordeste 23 Nordeste 0 -- -- 67
2020-08-03 04:00:00 17 12 Nordeste 20 Nordeste 0 -- -- 65
2020-08-03 03:00:00 17.2 12 Nordeste 17 Nordeste 0 -- -- 64
2020-08-03 02:00:00 18.6 3 Norte 9 Noroeste 0 -- -- 53
2020-08-03 01:00:00 19.9 8 Noroeste 16 Nordeste 0 -- -- 51
2020-08-03 00:00:00 21.4 7 Nordeste 27 Oeste 0 -- -- 46
2020-08-02 23:00:00 20.8 4 Este 14 Este 0 -- -- 50
2020-08-02 22:00:00 22.4 8 Nordeste 19 Norte 0 -- -- 45
2020-08-02 21:00:00 26.1 12 Norte 25 Norte 0 -- -- 34
2020-08-02 20:00:00 28.2 15 Nordeste 21 Nordeste 0 -- -- 34
2020-08-02 19:00:00 29.1 15 Nordeste 22 Nordeste 0 -- -- 31
2020-08-02 18:00:00 28.9 12 Nordeste 24 Norte 0 -- -- 34
2020-08-02 17:00:00 30 13 Noroeste 24 Norte 0 -- -- 29
2020-08-02 16:00:00 29.7 14 Nordeste 24 Nordeste 0 -- -- 35
2020-08-02 15:00:00 28.8 10 Nordeste 26 Este 0 -- -- 37
2020-08-02 14:00:00 27.6 15 Nordeste 25 Este 0 -- -- 44
2020-08-02 13:00:00 25.6 18 Nordeste 28 Nordeste 0 -- -- 51
2020-08-02 12:00:00 23.6 13 Nordeste 19 Nordeste 0 -- -- 57
2020-08-02 11:00:00 20.9 10 Nordeste 19 Este 0 -- -- 65
2020-08-02 10:00:00 18.6 7 Nordeste 16 Nordeste 0 -- -- 72
2020-08-02 09:00:00 16.2 6 Nordeste 12 Nordeste 0 -- -- 79
2020-08-02 08:00:00 12.1 3 Sudoeste 6 Noroeste 0 -- -- 84
2020-08-02 07:00:00 11.9 2 Oeste 8 Norte 0 -- -- 81
2020-08-02 06:00:00 12.7 0 Calma 9 Oeste 0 -- -- 79
2020-08-02 05:00:00 13.5 7 Noroeste 10 Sudoeste 0 -- -- 76
2020-08-02 04:00:00 14.7 9 Oeste 11 Sudoeste 0 -- -- 69
2020-08-02 03:00:00 16.5 7 Sudoeste 9 Oeste 0 -- -- 63
2020-08-02 02:00:00 17.8 6 Sudoeste 12 Sudoeste 0 -- -- 59
2020-08-02 01:00:00 20.1 6 Sudoeste 8 Oeste 0 -- -- 53
2020-08-02 00:00:00 21.2 4 Sudoeste 17 Oeste 0 -- -- 49
2020-08-01 23:00:00 22.5 10 Oeste 15 Oeste 0 -- -- 39
2020-08-01 22:00:00 25.8 10 Oeste 13 Noroeste 0 -- -- 31
2020-08-01 21:00:00 29.6 12 Noroeste 30 Oeste 0 -- -- 26
2020-08-01 20:00:00 31.1 20 Oeste 36 Noroeste 0 -- -- 25
2020-08-01 19:00:00 32.1 17 Noroeste 33 Oeste 0 -- -- 27
2020-08-01 18:00:00 32.7 17 Oeste 38 Oeste 0 -- -- 27
2020-08-01 17:00:00 33 17 Oeste 41 Oeste 0 -- -- 27
2020-08-01 16:00:00 32.5 17 Oeste 30 Oeste 0 -- -- 24
2020-08-01 15:00:00 32.1 19 Oeste 31 Oeste 0 -- -- 22
2020-08-01 14:00:00 30.9 9 Oeste 26 Oeste 0 -- -- 24
2020-08-01 13:00:00 29.8 14 Noroeste 30 Noroeste 0 -- -- 26
2020-08-01 12:00:00 27.6 6 Oeste 13 Oeste 0 -- -- 35
2020-08-01 11:00:00 24.8 6 Oeste 11 Oeste 0 -- -- 41
2020-08-01 10:00:00 22.2 4 Este 8 Este 0 -- -- 50
2020-08-01 09:00:00 16.9 0 Calma 6 Oeste 0 -- -- 64
2020-08-01 08:00:00 12.1 4 Oeste 10 Oeste 0 -- -- 75
2020-08-01 07:00:00 12.6 8 Oeste 12 Oeste 0 -- -- 73
2020-08-01 06:00:00 13.4 2 Noroeste 10 Oeste 0 -- -- 69
2020-08-01 05:00:00 14.8 5 Noroeste 12 Sur 0 -- -- 63
2020-08-01 04:00:00 17.4 7 Sur 13 Sudoeste 0 -- -- 56
2020-08-01 03:00:00 19.2 8 Sudoeste 14 Sur 0 -- -- 49
2020-08-01 02:00:00 19.8 8 Sur 13 Sur 0 -- -- 45
2020-08-01 01:00:00 20.7 6 Sur 12 Sur 0 -- -- 42
2020-08-01 00:00:00 20.8 5 Sudoeste 10 Oeste 0 -- -- 42
2020-07-31 23:00:00 24.2 8 Oeste 12 Oeste 0 -- -- 35
2020-07-31 22:00:00 27 6 Oeste 19 Sudoeste 0 -- -- 31
2020-07-31 21:00:00 31.3 14 Sudoeste 36 Sudoeste 0 -- -- 25
2020-07-31 20:00:00 33.1 22 Sudoeste 34 Sudoeste 0 -- -- 22
2020-07-31 19:00:00 34.3 18 Sudoeste 33 Sudoeste 0 -- -- 21
2020-07-31 18:00:00 34.6 20 Sudoeste 33 Sudoeste 0 -- -- 21
2020-07-31 17:00:00 34.5 17 Sudoeste 33 Sudoeste 0 -- -- 22
2020-07-31 16:00:00 34 22 Sudoeste 38 Sudoeste 0 -- -- 23
2020-07-31 15:00:00 33.6 21 Sudoeste 33 Sudoeste 0 -- -- 25
2020-07-31 14:00:00 32.7 19 Sudoeste 39 Sudoeste 0 -- -- 27
2020-07-31 13:00:00 31.4 19 Sudoeste 33 Sudoeste 0 -- -- 31
2020-07-31 12:00:00 30.1 20 Sudoeste 36 Sudoeste 0 -- -- 34
2020-07-31 11:00:00 28.9 22 Sudoeste 42 Sudoeste 0 -- -- 36
2020-07-31 10:00:00 25.5 8 Sudoeste 15 Sudoeste 0 -- -- 44
2020-07-31 09:00:00 19.1 5 Sudoeste 10 Sudoeste 0 -- -- 58
2020-07-31 08:00:00 13.7 5 Oeste 8 Oeste 0 -- -- 78
2020-07-31 07:00:00 13.8 4 Noroeste 9 Oeste 0 -- -- 74
2020-07-31 06:00:00 14.3 6 Noroeste 12 Oeste 0 -- -- 73
2020-07-31 05:00:00 15.1 6 Oeste 8 Oeste 0 -- -- 69
2020-07-31 04:00:00 16.3 6 Oeste 9 Oeste 0 -- -- 65
2020-07-31 03:00:00 17.3 9 Sudoeste 12 Sudoeste 0 -- -- 59
2020-07-31 02:00:00 18.8 6 Oeste 18 Oeste 0 -- -- 54
2020-07-31 01:00:00 20.7 6 Sudoeste 9 Sudoeste 0 -- -- 49
2020-07-31 00:00:00 22.2 5 Sudoeste 22 Noroeste 0 -- -- 44
2020-07-30 23:00:00 24.3 5 Sudoeste 12 Sudoeste 0 -- -- 40
2020-07-30 22:00:00 26.9 10 Sudoeste 22 Sudoeste 0 -- -- 35
2020-07-30 21:00:00 30.3 13 Sudoeste 33 Sudoeste 0 -- -- 31
2020-07-30 20:00:00 31.8 18 Sudoeste 35 Sudoeste 0 -- -- 31
2020-07-30 19:00:00 33.1 19 Sudoeste 41 Sudoeste 0 -- -- 28
2020-07-30 18:00:00 33.6 26 Sudoeste 45 Sudoeste 0 -- -- 28
2020-07-30 17:00:00 34.3 23 Sudoeste 47 Sudoeste 0 -- -- 27
2020-07-30 16:00:00 34.2 18 Sudoeste 46 Oeste 0 -- -- 28
2020-07-30 15:00:00 34.6 18 Sudoeste 40 Sudoeste 0 -- -- 30
2020-07-30 14:00:00 31.4 12 Sudoeste 33 Sur 0 -- -- 36
2020-07-30 13:00:00 34.3 15 Sudoeste 31 Sur 0 -- -- 31
2020-07-30 12:00:00 32.7 14 Sudoeste 25 Sudoeste 0 -- -- 32
2020-07-30 11:00:00 31.8 14 Sur 28 Sur 0 -- -- 31
2020-07-30 10:00:00 26.9 6 Sudoeste 13 Sudoeste 0 -- -- 42
2020-07-30 09:00:00 19.4 0 Calma 8 Noroeste 0 -- -- 65
2020-07-30 08:00:00 15.4 5 Noroeste 8 Oeste 0 -- -- 77
2020-07-30 07:00:00 16.1 5 Oeste 12 Oeste 0 -- -- 74
2020-07-30 06:00:00 16.1 9 Oeste 12 Oeste 0 -- -- 73
2020-07-30 05:00:00 16.7 4 Noroeste 10 Sudoeste 0 -- -- 65
2020-07-30 04:00:00 18.1 3 Oeste 12 Oeste 0 -- -- 61
2020-07-30 03:00:00 19 8 Sudoeste 12 Oeste 0 -- -- 57
2020-07-30 02:00:00 20 0 Calma 13 Oeste 0 -- -- 53
2020-07-30 01:00:00 20.4 3 Noroeste 13 Sudoeste 0 -- -- 55
2020-07-30 00:00:00 23.1 4 Sudoeste 9 Oeste 0 -- -- 44
2020-07-29 23:00:00 25.1 6 Oeste 11 Oeste 0 -- -- 40
2020-07-29 22:00:00 29.9 6 Oeste 9 Oeste 0 -- -- 30
2020-07-29 21:00:00 33.4 6 Oeste 24 Sudoeste 0 -- -- 25
2020-07-29 20:00:00 35.1 13 Sudoeste 24 Oeste 0 -- -- 24
2020-07-29 19:00:00 36.6 11 Oeste 23 Oeste 0 -- -- 24
2020-07-29 18:00:00 36.7 7 Oeste 22 Oeste 0 -- -- 23
2020-07-29 17:00:00 36 13 Oeste 22 Sur 0 -- -- 23
2020-07-29 16:00:00 35.8 6 Oeste 31 Oeste 0 -- -- 24
2020-07-29 15:00:00 35.7 9 Sudoeste 23 Sudeste 0 -- -- 24
2020-07-29 14:00:00 34.2 7 Noroeste 19 Nordeste 0 -- -- 28
2020-07-29 13:00:00 30.8 12 Nordeste 17 Nordeste 0 -- -- 44
2020-07-29 12:00:00 26.9 9 Norte 15 Nordeste 0 -- -- 53
2020-07-29 11:00:00 23.6 10 Nordeste 16 Nordeste 0 -- -- 63
2020-07-29 10:00:00 20.6 11 Nordeste 17 Nordeste 0 -- -- 72
2020-07-29 09:00:00 18.3 11 Nordeste 16 Nordeste 0 -- -- 82
2020-07-29 08:00:00 16.4 9 Nordeste 14 Nordeste 0 -- -- 88
2020-07-29 07:00:00 16.1 10 Nordeste 17 Nordeste 0 -- -- 89
2020-07-29 06:00:00 16.8 10 Nordeste 19 Nordeste 0 -- -- 85
2020-07-29 05:00:00 17.1 10 Nordeste 13 Nordeste 0 -- -- 80
2020-07-29 04:00:00 18.1 6 Nordeste 15 Nordeste 0 -- -- 73
2020-07-29 03:00:00 20.4 6 Nordeste 10 Nordeste 0 -- -- 65
2020-07-29 02:00:00 20.9 9 Nordeste 16 Nordeste 0 -- -- 63
2020-07-29 01:00:00 23.9 9 Nordeste 26 Nordeste 0 -- -- 51
2020-07-29 00:00:00 21.2 7 Este 14 Nordeste 0 -- -- 57
2020-07-28 23:00:00 25 7 Noroeste 9 Noroeste 0 -- -- 45
2020-07-28 22:00:00 28.2 3 Sudoeste 13 Nordeste 0 -- -- 39
2020-07-28 21:00:00 31.6 9 Nordeste 15 Nordeste 0 -- -- 32
2020-07-28 20:00:00 33.6 9 Este 17 Nordeste 0 -- -- 28
2020-07-28 19:00:00 34.5 10 Norte 25 Nordeste 0 -- -- 25
2020-07-28 18:00:00 34.6 13 Noroeste 24 Oeste 0 -- -- 26
2020-07-28 17:00:00 33.5 8 Nordeste 24 Noroeste 0 -- -- 28
2020-07-28 16:00:00 34.4 7 Noroeste 27 Noroeste 0 -- -- 27
2020-07-28 15:00:00 32.7 12 Oeste 22 Noroeste 0 -- -- 26
2020-07-28 14:00:00 31.3 9 Norte 24 Norte 0 -- -- 35
2020-07-28 13:00:00 29.3 6 Norte 18 Norte 0 -- -- 43
2020-07-28 12:00:00 26.5 8 Oeste 18 Oeste 0 -- -- 51
2020-07-28 11:00:00 24.7 9 Noroeste 17 Oeste 0 -- -- 58
2020-07-28 10:00:00 22.3 6 Norte 20 Noroeste 0 -- -- 66
2020-07-28 09:00:00 21 8 Noroeste 14 Oeste 0 -- -- 69
2020-07-28 08:00:00 17 0 Calma 9 Sudoeste 0 -- -- 79
2020-07-28 07:00:00 15.6 6 Sudoeste 8 Sudoeste 0 -- -- 81
2020-07-28 06:00:00 16.5 5 Oeste 11 Oeste 0 -- -- 79
2020-07-28 05:00:00 17.6 8 Sudoeste 10 Sudoeste 0 -- -- 76
2020-07-28 04:00:00 19.3 8 Oeste 10 Oeste 0 -- -- 70
2020-07-28 03:00:00 20.9 8 Sudoeste 14 Sur 0 -- -- 65
2020-07-28 02:00:00 22.5 8 Sudoeste 15 Oeste 0 -- -- 60
2020-07-28 01:00:00 24 10 Sudoeste 18 Sudoeste 0 -- -- 52
2020-07-28 00:00:00 25.1 5 Sudoeste 15 Oeste 0 -- -- 48
2020-07-27 23:00:00 25.4 8 Oeste 18 Noroeste 0 -- -- 46
2020-07-27 22:00:00 28.3 8 Noroeste 18 Sudoeste 0 -- -- 34
2020-07-27 21:00:00 32.5 12 Sudoeste 22 Sudoeste 0 -- -- 26
2020-07-27 20:00:00 34.2 17 Sudoeste 36 Oeste 0 -- -- 23
2020-07-27 19:00:00 35.3 16 Sudoeste 33 Sudoeste 0 -- -- 23
2020-07-27 18:00:00 35.7 20 Sudoeste 37 Oeste 0 -- -- 24
2020-07-27 17:00:00 35.8 21 Sudoeste 36 Oeste 0 -- -- 25
2020-07-27 16:00:00 35.4 20 Sudoeste 38 Sudoeste 0 -- -- 25
2020-07-27 15:00:00 35.1 18 Sudoeste 30 Sudoeste 0 -- -- 26
2020-07-27 14:00:00 34.2 21 Sudoeste 36 Sudoeste 0 -- -- 26
2020-07-27 13:00:00 34.1 21 Sudoeste 37 Sudoeste 0 -- -- 24
2020-07-27 12:00:00 33.6 7 Sudoeste 15 Sudoeste 0 -- -- 24
2020-07-27 09:00:00 18.5 0 Calma 5 Norte 0 -- -- 51
2020-07-27 08:00:00 14.9 4 Oeste 12 Oeste 0 -- -- 62
2020-07-27 07:00:00 14.5 6 Oeste 10 Oeste 0 -- -- 62
2020-07-27 06:00:00 14.2 7 Oeste 13 Noroeste 0 -- -- 63
2020-07-27 05:00:00 15.5 5 Noroeste 14 Oeste 0 -- -- 57
2020-07-27 04:00:00 15.6 8 Oeste 12 Sudoeste 0 -- -- 56
2020-07-27 03:00:00 17 5 Sudoeste 20 Oeste 0 -- -- 51
2020-07-27 02:00:00 16.8 9 Sudoeste 11 Oeste 0 -- -- 50
2020-07-27 01:00:00 18.4 5 Noroeste 8 Oeste 0 -- -- 52
2020-07-27 00:00:00 20.6 4 Oeste 9 Oeste 0 -- -- 43
2020-07-26 23:00:00 24.5 8 Oeste 12 Noroeste 0 -- -- 33
2020-07-26 22:00:00 28.8 5 Sudoeste 17 Oeste 0 -- -- 25
2020-07-26 21:00:00 32.6 12 Sudoeste 24 Sudoeste 0 -- -- 20
2020-07-26 20:00:00 34.5 17 Sudoeste 29 Oeste 0 -- -- 17
2020-07-26 19:00:00 35.5 19 Sudoeste 31 Sudoeste 0 -- -- 15
2020-07-26 18:00:00 36.3 17 Sudoeste 32 Sudoeste 0 -- -- 16
2020-07-26 17:00:00 36 14 Sudoeste 27 Nordeste 0 -- -- 17
2020-07-26 16:00:00 35.1 15 Sur 28 Sudoeste 0 -- -- 25
2020-07-26 15:00:00 33.7 7 Noroeste 22 Este 0 -- -- 23
2020-07-26 14:00:00 31.8 11 Nordeste 21 Nordeste 0 -- -- 30
2020-07-26 13:00:00 29.7 10 Nordeste 19 Este 0 -- -- 32
2020-07-26 12:00:00 27 12 Nordeste 15 Norte 0 -- -- 35
2020-07-26 11:00:00 24.2 9 Nordeste 14 Nordeste 0 -- -- 43
2020-07-26 10:00:00 22 5 Nordeste 10 Este 0 -- -- 47
2020-07-26 09:00:00 16 0 Calma 5 Oeste 0 -- -- 62
2020-07-26 08:00:00 12 3 Sudoeste 8 Noroeste 0 -- -- 75
2020-07-26 07:00:00 11.7 2 Oeste 8 Norte 0 -- -- 69
2020-07-26 06:00:00 12.9 4 Sudoeste 6 Sur 0 -- -- 66
2020-07-26 05:00:00 13.7 6 Oeste 10 Oeste 0 -- -- 63
2020-07-26 04:00:00 14.9 4 Oeste 8 Norte 0 -- -- 54
2020-07-26 03:00:00 16.6 6 Oeste 12 Sudoeste 0 -- -- 51
2020-07-26 02:00:00 19.3 5 Oeste 9 Oeste 0 -- -- 42
2020-07-26 01:00:00 21.6 3 Sur 14 Oeste 0 -- -- 36
2020-07-26 00:00:00 22.3 9 Oeste 13 Oeste 0 -- -- 34
2020-07-25 23:00:00 23.9 8 Oeste 12 Oeste 0 -- -- 36
2020-07-25 22:00:00 27.7 5 Oeste 18 Noroeste 0 -- -- 29
2020-07-25 21:00:00 30.7 13 Noroeste 26 Oeste 0 -- -- 24
2020-07-25 20:00:00 32.2 17 Oeste 28 Oeste 0 -- -- 25
2020-07-25 19:00:00 33.4 18 Oeste 31 Oeste 0 -- -- 25
2020-07-25 18:00:00 34.2 15 Oeste 27 Oeste 0 -- -- 24
2020-07-25 17:00:00 34.4 14 Oeste 28 Oeste 0 -- -- 25
2020-07-25 16:00:00 34 16 Oeste 30 Oeste 0 -- -- 25
2020-07-25 15:00:00 33.5 16 Oeste 28 Oeste 0 -- -- 25
2020-07-25 14:00:00 32.3 13 Oeste 29 Oeste 0 -- -- 23
2020-07-25 13:00:00 31.6 7 Este 15 Este 0 -- -- 27
2020-07-25 12:00:00 28.5 5 Este 12 Este 0 -- -- 35
2020-07-25 11:00:00 24.6 6 Este 12 Norte 0 -- -- 43
2020-07-25 10:00:00 21.3 6 Nordeste 10 Nordeste 0 -- -- 50
2020-07-25 09:00:00 16.3 2 Sudoeste 5 Oeste 0 -- -- 65
2020-07-25 08:00:00 12.1 4 Sudoeste 8 Norte 0 -- -- 74
2020-07-25 07:00:00 11.6 0 Calma 11 Oeste 0 -- -- 74
2020-07-25 06:00:00 12.8 2 Sudoeste 7 Oeste 0 -- -- 67
2020-07-25 05:00:00 13.7 0 Calma 8 Oeste 0 -- -- 66
2020-07-25 04:00:00 14.3 4 Oeste 12 Sudoeste 0 -- -- 60
2020-07-25 03:00:00 15.1 8 Sudoeste 10 Oeste 0 -- -- 59
2020-07-25 02:00:00 16.2 8 Sudoeste 11 Sudoeste 0 -- -- 56
2020-07-25 01:00:00 17.7 9 Oeste 12 Oeste 0 -- -- 53
2020-07-25 00:00:00 20.3 5 Oeste 7 Sudoeste 0 -- -- 47
2020-07-24 23:00:00 23.1 3 Norte 15 Nordeste 0 -- -- 41
2020-07-24 22:00:00 25.5 11 Nordeste 21 Nordeste 0 -- -- 36
2020-07-24 21:00:00 29.2 16 Nordeste 24 Nordeste 0 -- -- 29
2020-07-24 20:00:00 31.6 13 Nordeste 24 Nordeste 0 -- -- 25
2020-07-24 19:00:00 32.4 16 Nordeste 27 Nordeste 0 -- -- 23
2020-07-24 18:00:00 32.9 13 Nordeste 23 Este 0 -- -- 23
2020-07-24 17:00:00 32.7 12 Nordeste 20 Norte 0 -- -- 25
2020-07-24 16:00:00 31.7 11 Este 19 Este 0 -- -- 27
2020-07-24 15:00:00 30.6 11 Este 20 Este 0 -- -- 31
2020-07-24 14:00:00 29.7 10 Nordeste 26 Nordeste 0 -- -- 33
2020-07-24 13:00:00 27.8 16 Nordeste 27 Nordeste 0 -- -- 39
2020-07-24 12:00:00 26.2 18 Nordeste 26 Nordeste 0 -- -- 40
2020-07-24 11:00:00 23.5 12 Nordeste 18 Nordeste 0 -- -- 57
2020-07-24 10:00:00 21 11 Nordeste 19 Nordeste 0 -- -- 62
2020-07-24 09:00:00 18.3 7 Nordeste 12 Nordeste 0 -- -- 66
2020-07-24 08:00:00 14.2 0 Calma 9 Oeste 0 -- -- 76
2020-07-24 07:00:00 14.2 5 Noroeste 8 Oeste 0 -- -- 75
2020-07-24 06:00:00 14.8 0 Calma 13 Norte 0 -- -- 74
2020-07-24 05:00:00 16.4 6 Sudoeste 8 Sudoeste 0 -- -- 66
2020-07-24 04:00:00 17.5 6 Sudoeste 12 Oeste 0 -- -- 63
2020-07-24 03:00:00 19.5 8 Oeste 10 Oeste 0 -- -- 58
2020-07-24 02:00:00 22.1 0 Calma 9 Nordeste 0 -- -- 50
2020-07-24 01:00:00 24.2 7 Noroeste 16 Noroeste 0 -- -- 45
2020-07-24 00:00:00 24.2 7 Oeste 15 Oeste 0 -- -- 45
2020-07-23 23:00:00 26.7 10 Noroeste 17 Oeste 0 -- -- 38
2020-07-23 22:00:00 28.6 11 Noroeste 20 Noroeste 0 -- -- 34
2020-07-23 21:00:00 31.4 14 Noroeste 23 Oeste 0 -- -- 29
2020-07-23 20:00:00 33.1 14 Oeste 29 Oeste 0 -- -- 28
2020-07-23 19:00:00 34.1 12 Noroeste 23 Oeste 0 -- -- 27
2020-07-23 18:00:00 32.4 13 Noroeste 25 Oeste 0 -- -- 28
2020-07-23 17:00:00 34.2 11 Oeste 27 Oeste 0 -- -- 26
2020-07-23 16:00:00 33.9 13 Noroeste 18 Oeste 0 -- -- 27
2020-07-23 15:00:00 33.2 7 Este 17 Nordeste 0 -- -- 31
2020-07-23 14:00:00 32.4 7 Este 23 Este 0 -- -- 31
2020-07-23 13:00:00 32.2 7 Nordeste 17 Este 0 -- -- 34
2020-07-23 12:00:00 30.1 8 Este 16 Oeste 0 -- -- 38
2020-07-23 11:00:00 26.9 6 Oeste 11 Oeste 0 -- -- 46
2020-07-23 10:00:00 23.3 5 Sudoeste 8 Oeste 0 -- -- 56
2020-07-23 09:00:00 18.6 4 Oeste 6 Oeste 0 -- -- 69
2020-07-23 08:00:00 15.5 3 Noroeste 9 Oeste 0 -- -- 80
2020-07-23 07:00:00 15.3 8 Oeste 10 Sudoeste 0 -- -- 82
2020-07-23 06:00:00 17 3 Oeste 9 Sudoeste 0 -- -- 75
2020-07-23 05:00:00 17.7 3 Sur 9 Sudoeste 0 -- -- 73
2020-07-23 04:00:00 17.5 6 Sudoeste 8 Sudoeste 0 -- -- 73
2020-07-23 03:00:00 18.3 4 Sudoeste 10 Sudoeste 0 -- -- 68
2020-07-23 02:00:00 19.5 5 Oeste 12 Oeste 0 -- -- 61
2020-07-23 01:00:00 20.1 10 Sudoeste 12 Oeste 0 -- -- 62
2020-07-23 00:00:00 21.4 3 Sudoeste 14 Noroeste 0 -- -- 52
2020-07-22 23:00:00 22.5 9 Sudoeste 12 Sudoeste 0 -- -- 50
2020-07-22 22:00:00 26.7 0 Calma 8 Nordeste 0 -- -- 41
2020-07-22 21:00:00 29.8 8 Nordeste 15 Nordeste 0 -- -- 34
2020-07-22 20:00:00 31.5 6 Este 21 Este 0 -- -- 33
2020-07-22 19:00:00 32.1 7 Norte 26 Este 0 -- -- 31
2020-07-22 18:00:00 31.9 10 Norte 26 Norte 0 -- -- 33
2020-07-22 17:00:00 30.8 12 Nordeste 25 Nordeste 0 -- -- 37
2020-07-22 16:00:00 31 13 Nordeste 23 Nordeste 0 -- -- 38
2020-07-22 15:00:00 29.3 5 Norte 17 Oeste 0 -- -- 41
2020-07-22 14:00:00 29.1 13 Norte 20 Norte 0 -- -- 41
2020-07-22 13:00:00 28.1 6 Norte 15 Norte 0 -- -- 45
2020-07-22 12:00:00 26.1 7 Este 16 Este 0 -- -- 50
2020-07-22 11:00:00 23.9 7 Nordeste 19 Nordeste 0 -- -- 59
2020-07-22 10:00:00 21.3 5 Nordeste 11 Este 0 -- -- 68
2020-07-22 09:00:00 17.6 0 Calma 5 Sudeste 0 -- -- 80
2020-07-22 08:00:00 13.7 5 Noroeste 10 Oeste 0 -- -- 92
2020-07-22 07:00:00 13.7 4 Sudoeste 7 Oeste 0 -- -- 90
2020-07-22 06:00:00 15.2 7 Oeste 10 Oeste 0 -- -- 87
2020-07-22 05:00:00 16.1 7 Oeste 12 Sudeste 0 -- -- 83
2020-07-22 04:00:00 17.5 3 Oeste 21 Oeste 0 -- -- 76
2020-07-22 03:00:00 17.4 15 Sudoeste 22 Sudoeste 0 -- -- 80
2020-07-22 02:00:00 18 7 Este 18 Nordeste 0.2 -- -- 78
2020-07-22 01:00:00 17.8 7 Este 12 Sudoeste 0 -- -- 82
2020-07-22 00:00:00 18.9 5 Noroeste 22 Este 0 -- -- 75
2020-07-21 23:00:00 18.9 10 Noroeste 17 Noroeste 0 -- -- 73
2020-07-21 22:00:00 19.9 6 Oeste 18 Sur 0 -- -- 68
2020-07-21 21:00:00 20.9 5 Sur 32 Oeste 0 -- -- 63
2020-07-21 20:00:00 22.7 20 Sur 46 Sudeste 0 -- -- 55
2020-07-21 19:00:00 25.5 19 Sur 32 Sur 0 -- -- 39
2020-07-21 18:00:00 25.4 15 Sudoeste 28 Sudoeste 0 -- -- 42
2020-07-21 17:00:00 27.4 12 Oeste 19 Oeste 0 -- -- 40
2020-07-21 16:00:00 27.7 13 Oeste 41 Sur 0 -- -- 39
2020-07-21 15:00:00 29.5 9 Este 28 Sudeste 0 -- -- 34
2020-07-21 14:00:00 31.5 17 Nordeste 25 Nordeste 0 -- -- 32
2020-07-21 13:00:00 30.1 13 Nordeste 22 Nordeste 0 -- -- 32
2020-07-21 12:00:00 27.3 11 Nordeste 19 Nordeste 0 -- -- 39
2020-07-21 11:00:00 24.3 9 Nordeste 17 Nordeste 0 -- -- 39
2020-07-21 10:00:00 23.1 9 Este 26 Noroeste 0 -- -- 37
2020-07-21 09:00:00 20.9 8 Noroeste 18 Sudoeste 0 -- -- 37
2020-07-21 08:00:00 16.4 11 Noroeste 26 Sudoeste 0 -- -- 46
2020-07-21 07:00:00 12.4 11 Norte 15 Sudoeste 0 -- -- 62
2020-07-21 06:00:00 12 2 Oeste 9 Oeste 0 -- -- 64
2020-07-21 05:00:00 13.3 3 Noroeste 14 Sudoeste 0 -- -- 53
2020-07-21 04:00:00 13.1 9 Oeste 10 Oeste 0 -- -- 54
2020-07-21 03:00:00 14 7 Oeste 9 Oeste 0 -- -- 55
2020-07-21 02:00:00 16.3 5 Noroeste 8 Oeste 0 -- -- 47
2020-07-21 01:00:00 18 7 Oeste 12 Oeste 0 -- -- 40
2020-07-21 00:00:00 19.7 9 Sudoeste 11 Sudoeste 0 -- -- 36
2020-07-20 23:00:00 23.1 6 Oeste 12 Oeste 0 -- -- 31
2020-07-20 22:00:00 27.3 8 Oeste 13 Sudoeste 0 -- -- 25
2020-07-20 21:00:00 31.4 9 Sudoeste 19 Sudoeste 0 -- -- 19
2020-07-20 20:00:00 33.7 10 Sudoeste 22 Sudoeste 0 -- -- 18
2020-07-20 19:00:00 34.8 9 Sudoeste 19 Sudoeste 0 -- -- 18
2020-07-20 18:00:00 34.7 10 Oeste 25 Sudoeste 0 -- -- 17
2020-07-20 17:00:00 34.5 13 Sudoeste 35 Sudoeste 0 -- -- 16
2020-07-20 16:00:00 34 21 Sudoeste 34 Sudoeste 0 -- -- 14
2020-07-20 15:00:00 33.5 19 Sudoeste 35 Oeste 0 -- -- 17
2020-07-20 14:00:00 32.3 22 Sudoeste 40 Sudoeste 0 -- -- 17
2020-07-20 13:00:00 31.5 20 Oeste 40 Sudoeste 0 -- -- 19
2020-07-20 12:00:00 30.6 14 Sudoeste 28 Sudoeste 0 -- -- 21
2020-07-20 11:00:00 28.7 9 Sudoeste 17 Sudoeste 0 -- -- 25
2020-07-20 10:00:00 22.3 5 Oeste 8 Oeste 0 -- -- 39
2020-07-20 09:00:00 17.1 3 Noroeste 8 Noroeste 0 -- -- 48
2020-07-20 08:00:00 12.1 7 Oeste 11 Oeste 0 -- -- 73
2020-07-20 07:00:00 11.7 7 Oeste 9 Oeste 0 -- -- 65
2020-07-20 06:00:00 14 3 Oeste 10 Oeste 0 -- -- 62
2020-07-20 05:00:00 14.6 6 Oeste 11 Oeste 0 -- -- 50
2020-07-20 04:00:00 15.9 10 Sudoeste 15 Sudoeste 0 -- -- 45
2020-07-20 03:00:00 16.6 9 Oeste 11 Oeste 0 -- -- 42
2020-07-20 02:00:00 18.4 7 Sudoeste 10 Sudoeste 0 -- -- 37
2020-07-20 01:00:00 20.8 8 Sudoeste 13 Sudoeste 0 -- -- 32
2020-07-20 00:00:00 21.8 5 Oeste 12 Sudoeste 0 -- -- 31
2020-07-19 23:00:00 23.1 9 Sudoeste 17 Sudoeste 0 -- -- 31
2020-07-19 22:00:00 26 11 Sudoeste 25 Sudoeste 0 -- -- 27
2020-07-19 21:00:00 30.3 19 Sudoeste 33 Sudoeste 0 -- -- 22
2020-07-19 20:00:00 31.8 23 Sudoeste 39 Sudoeste 0 -- -- 21
2020-07-19 19:00:00 32.9 22 Sudoeste 40 Sudoeste 0 -- -- 19
2020-07-19 18:00:00 33 23 Sudoeste 42 Sudoeste 0 -- -- 17
2020-07-19 17:00:00 33.4 22 Sudoeste 42 Sudoeste 0 -- -- 20
2020-07-19 16:00:00 33.1 24 Sudoeste 41 Sudoeste 0 -- -- 20
2020-07-19 15:00:00 33.1 25 Sudoeste 46 Sudoeste 0 -- -- 21
2020-07-19 14:00:00 31.7 27 Sudoeste 45 Sudoeste 0 -- -- 25
2020-07-19 13:00:00 30.4 20 Sudoeste 43 Sudoeste 0 -- -- 29
2020-07-19 12:00:00 28.6 28 Sudoeste 42 Sudoeste 0 -- -- 30
2020-07-19 11:00:00 29.1 20 Sudoeste 29 Sudoeste 0 -- -- 32
2020-07-19 10:00:00 24.7 0 Calma 7 Oeste 0 -- -- 40
2020-07-19 09:00:00 18.8 3 Oeste 9 Oeste 0 -- -- 50
2020-07-19 08:00:00 14.3 8 Oeste 10 Oeste 0 -- -- 65
2020-07-19 07:00:00 12.7 8 Oeste 10 Oeste 0 -- -- 71
2020-07-19 06:00:00 13.7 5 Sudoeste 12 Oeste 0 -- -- 64
2020-07-19 05:00:00 14.8 7 Oeste 13 Sudoeste 0 -- -- 58
2020-07-19 04:00:00 14.7 9 Sudoeste 13 Sudoeste 0 -- -- 58
2020-07-19 03:00:00 14.2 8 Oeste 10 Oeste 0 -- -- 62
2020-07-19 02:00:00 15.7 6 Noroeste 9 Noroeste 0 -- -- 59
2020-07-19 01:00:00 17.7 6 Oeste 10 Oeste 0 -- -- 53
2020-07-19 00:00:00 19.8 7 Noroeste 12 Oeste 0 -- -- 45
2020-07-18 23:00:00 22.7 7 Oeste 8 Oeste 0 -- -- 41
2020-07-18 22:00:00 26.7 7 Nordeste 13 Nordeste 0 -- -- 31
2020-07-18 21:00:00 30.6 9 Nordeste 16 Nordeste 0 -- -- 27
2020-07-18 20:00:00 32.5 10 Nordeste 20 Nordeste 0 -- -- 23
2020-07-18 19:00:00 33.2 13 Nordeste 26 Este 0 -- -- 22
2020-07-18 18:00:00 33.6 12 Nordeste 23 Nordeste 0 -- -- 22
2020-07-18 17:00:00 33.2 13 Nordeste 22 Nordeste 0 -- -- 21
2020-07-18 16:00:00 32.6 8 Este 22 Este 0 -- -- 20
2020-07-18 15:00:00 31.7 13 Nordeste 22 Nordeste 0 -- -- 20
2020-07-18 14:00:00 29.9 15 Nordeste 21 Nordeste 0 -- -- 23
2020-07-18 13:00:00 28.1 10 Nordeste 17 Nordeste 0 -- -- 28
2020-07-18 12:00:00 24.5 11 Nordeste 16 Nordeste 0 -- -- 44
2020-07-18 11:00:00 20.9 10 Nordeste 17 Nordeste 0 -- -- 53
2020-07-18 10:00:00 17.9 9 Nordeste 15 Nordeste 0 -- -- 61
2020-07-18 09:00:00 14.8 9 Nordeste 15 Nordeste 0 -- -- 69
2020-07-18 08:00:00 11.5 5 Nordeste 8 Nordeste 0 -- -- 76
2020-07-18 07:00:00 9.4 4 Norte 6 Norte 0 -- -- 79
2020-07-18 06:00:00 11.2 0 Calma 4 Oeste 0 -- -- 64
2020-07-18 05:00:00 12.9 2 Este 16 Nordeste 0 -- -- 60
2020-07-18 04:00:00 14.2 10 Nordeste 15 Nordeste 0 -- -- 57
2020-07-18 03:00:00 14.5 10 Nordeste 18 Nordeste 0 -- -- 51
2020-07-18 02:00:00 15.9 12 Nordeste 15 Nordeste 0 -- -- 44
2020-07-18 01:00:00 17.6 7 Nordeste 19 Nordeste 0 -- -- 39
2020-07-18 00:00:00 18.7 9 Nordeste 17 Nordeste 0 -- -- 37
2020-07-17 23:00:00 21.1 13 Nordeste 24 Nordeste 0 -- -- 33
2020-07-17 22:00:00 24.6 14 Nordeste 23 Nordeste 0 -- -- 29
2020-07-17 21:00:00 28.8 14 Nordeste 26 Nordeste 0 -- -- 22
2020-07-17 20:00:00 30.6 16 Nordeste 24 Nordeste 0 -- -- 20
2020-07-17 19:00:00 31.5 18 Nordeste 23 Nordeste 0 -- -- 18
2020-07-17 18:00:00 31.9 16 Nordeste 30 Nordeste 0 -- -- 17
2020-07-17 17:00:00 31.7 17 Nordeste 27 Nordeste 0 -- -- 19
2020-07-17 16:00:00 31.4 14 Nordeste 28 Nordeste 0 -- -- 19
2020-07-17 15:00:00 30.6 17 Nordeste 27 Nordeste 0 -- -- 22
2020-07-17 14:00:00 29.3 18 Nordeste 29 Norte 0 -- -- 25
2020-07-17 13:00:00 27.8 19 Nordeste 28 Norte 0 -- -- 31
2020-07-17 12:00:00 25.1 18 Nordeste 24 Nordeste 0 -- -- 37
2020-07-17 11:00:00 22.2 14 Nordeste 19 Nordeste 0 -- -- 41
2020-07-17 10:00:00 19.5 12 Nordeste 22 Nordeste 0 -- -- 49
2020-07-17 09:00:00 16.1 18 Nordeste 24 Nordeste 0 -- -- 57
2020-07-17 08:00:00 14.4 10 Nordeste 17 Nordeste 0 -- -- 62
2020-07-17 07:00:00 13.4 10 Nordeste 16 Nordeste 0 -- -- 63
2020-07-17 06:00:00 14.2 10 Nordeste 18 Nordeste 0 -- -- 59
2020-07-17 05:00:00 15.7 13 Nordeste 18 Nordeste 0 -- -- 53
2020-07-17 04:00:00 17.2 14 Nordeste 30 Nordeste 0 -- -- 57
2020-07-17 03:00:00 17.4 13 Nordeste 22 Nordeste 0 -- -- 63
2020-07-17 02:00:00 19.1 10 Nordeste 24 Nordeste 0 -- -- 56
2020-07-17 01:00:00 20 12 Nordeste 20 Nordeste 0 -- -- 50
2020-07-17 00:00:00 21.4 15 Nordeste 22 Nordeste 0 -- -- 44
2020-07-16 23:00:00 22.6 5 Nordeste 9 Nordeste 0 -- -- 34
2020-07-16 22:00:00 24.6 8 Nordeste 19 Nordeste 0 -- -- 33
2020-07-16 21:00:00 29.2 17 Nordeste 26 Nordeste 0 -- -- 24
2020-07-16 20:00:00 31.1 15 Nordeste 26 Nordeste 0 -- -- 25
2020-07-16 19:00:00 32 16 Nordeste 25 Este 0 -- -- 24
2020-07-16 18:00:00 32.3 17 Nordeste 27 Nordeste 0 -- -- 24
2020-07-16 17:00:00 32.2 18 Nordeste 26 Nordeste 0 -- -- 25
2020-07-16 16:00:00 32.1 18 Nordeste 31 Este 0 -- -- 24
2020-07-16 15:00:00 31.7 15 Nordeste 26 Nordeste 0 -- -- 26
2020-07-16 14:00:00 30.3 8 Nordeste 19 Nordeste 0 -- -- 28
2020-07-16 13:00:00 27.9 13 Nordeste 23 Nordeste 0 -- -- 32
2020-07-16 12:00:00 24.9 14 Nordeste 22 Nordeste 0 -- -- 38
2020-07-16 11:00:00 22.7 14 Nordeste 21 Nordeste 0 -- -- 40
2020-07-16 10:00:00 19.3 8 Nordeste 20 Nordeste 0 -- -- 47
2020-07-16 09:00:00 16.1 15 Nordeste 24 Nordeste 0 -- -- 56
2020-07-16 08:00:00 14.1 11 Nordeste 18 Nordeste 0 -- -- 66
2020-07-16 07:00:00 12.9 12 Nordeste 15 Nordeste 0 -- -- 69
2020-07-16 06:00:00 13.4 6 Nordeste 12 Nordeste 0 -- -- 69
2020-07-16 05:00:00 14.5 8 Nordeste 15 Nordeste 0 -- -- 67
2020-07-16 04:00:00 16.1 13 Nordeste 22 Nordeste 0 -- -- 63
2020-07-16 03:00:00 16 9 Nordeste 20 Nordeste 0 -- -- 62
2020-07-16 02:00:00 17.8 10 Nordeste 22 Nordeste 0 -- -- 55
2020-07-16 01:00:00 18.8 10 Nordeste 22 Nordeste 0 -- -- 51
2020-07-16 00:00:00 20.6 16 Nordeste 25 Nordeste 0 -- -- 48
2020-07-15 23:00:00 22.3 18 Nordeste 27 Nordeste 0 -- -- 46
2020-07-15 22:00:00 24.3 13 Nordeste 29 Nordeste 0 -- -- 33
2020-07-15 21:00:00 27.4 18 Nordeste 30 Nordeste 0 -- -- 27
2020-07-15 20:00:00 29.2 19 Nordeste 32 Nordeste 0 -- -- 24
2020-07-15 19:00:00 29.6 21 Nordeste 33 Nordeste 0 -- -- 24
2020-07-15 18:00:00 30 19 Nordeste 29 Nordeste 0 -- -- 26
2020-07-15 17:00:00 30.1 18 Nordeste 37 Nordeste 0 -- -- 26
2020-07-15 16:00:00 29.5 21 Nordeste 33 Nordeste 0 -- -- 27
2020-07-15 15:00:00 28 22 Nordeste 44 Nordeste 0 -- -- 28
2020-07-15 14:00:00 26.2 26 Nordeste 39 Nordeste 0 -- -- 31
2020-07-15 13:00:00 24.3 27 Nordeste 36 Nordeste 0 -- -- 32
2020-07-15 12:00:00 22.3 21 Nordeste 38 Nordeste 0 -- -- 35
2020-07-15 11:00:00 19 25 Nordeste 33 Nordeste 0 -- -- 40
2020-07-15 10:00:00 16.6 21 Nordeste 33 Nordeste 0 -- -- 45
2020-07-15 09:00:00 13.9 21 Nordeste 29 Nordeste 0 -- -- 52
2020-07-15 08:00:00 12.2 14 Nordeste 26 Nordeste 0 -- -- 60
2020-07-15 07:00:00 11.4 13 Nordeste 26 Nordeste 0 -- -- 66
2020-07-15 06:00:00 12.1 16 Nordeste 31 Nordeste 0 -- -- 66
2020-07-15 05:00:00 13.5 21 Nordeste 35 Nordeste 0 -- -- 60
2020-07-15 04:00:00 14.7 22 Nordeste 39 Nordeste 0 -- -- 62
2020-07-15 03:00:00 15.9 23 Nordeste 33 Nordeste 0 -- -- 59
2020-07-15 02:00:00 17.5 21 Nordeste 33 Nordeste 0 -- -- 52
2020-07-15 01:00:00 18.9 22 Nordeste 31 Nordeste 0 -- -- 45
2020-07-15 00:00:00 19.9 17 Nordeste 27 Nordeste 0 -- -- 41